Time;durP1;ratioP1;P1;durP2;ratioP2;P2;SDS_P1;SDS_P2;PMS_P1;PMS_P2;Temp;Humidity;BMP_temperature;BMP_pressure;BME280_temperature;BME280_humidity;BME280_pressure;Samples;Min_cycle;Max_cycle;Signal;HPM_P1;HPM_P2
2023/07/04 00:01:13;;;;;;;1.75;1.15;;;14.60;99.90;;;;;;5065645;28;20041;-76
2023/07/04 00:03:41;;;;;;;3.75;1.77;;;14.60;99.90;;;;;;5073472;28;20046;-80
2023/07/04 00:06:10;;;;;;;5.00;1.50;;;14.60;99.90;;;;;;5073006;28;20046;-81
2023/07/04 00:08:36;;;;;;;3.08;1.40;;;14.50;99.90;;;;;;5075228;28;20468;-68
2023/07/04 00:11:04;;;;;;;3.90;1.63;;;14.50;99.90;;;;;;5074523;28;20052;-67
2023/07/04 00:13:32;;;;;;;6.43;1.75;;;14.50;99.90;;;;;;5070757;28;20024;-80
2023/07/04 00:15:58;;;;;;;3.45;1.70;;;14.50;99.90;;;;;;5068821;28;20029;-81
2023/07/04 00:18:27;;;;;;;2.35;1.42;;;14.50;99.90;;;;;;5070945;28;20052;-69
2023/07/04 00:20:58;;;;;;;5.60;1.30;;;14.40;99.90;;;;;;5074069;28;20480;-81
2023/07/04 00:23:27;;;;;;;2.88;1.25;;;14.40;99.90;;;;;;5067508;28;20052;-72
2023/07/04 00:25:53;;;;;;;6.80;1.73;;;14.40;99.90;;;;;;5074685;28;20025;-71
2023/07/04 00:28:21;;;;;;;3.33;1.17;;;14.30;99.90;;;;;;5072679;28;20386;-79
2023/07/04 00:30:52;;;;;;;3.13;1.38;;;14.30;99.90;;;;;;5073087;28;20029;-68
2023/07/04 00:33:27;;;;;;;3.53;1.23;;;14.30;99.90;;;;;;5060635;28;20029;-65
2023/07/04 00:36:17;;;;;;;7.07;1.40;;;14.30;99.90;;;;;;5071042;28;20441;-80
2023/07/04 00:38:45;;;;;;;1.75;1.15;;;14.30;99.90;;;;;;5072802;28;20032;-73
2023/07/04 00:41:16;;;;;;;3.03;1.30;;;14.20;99.90;;;;;;5071628;28;20036;-74
2023/07/04 00:44:12;;;;;;;4.50;1.52;;;14.20;99.90;;;;;;5058980;28;20319;-67
2023/07/04 00:47:06;;;;;;;2.42;1.60;;;14.20;99.90;;;;;;5068780;28;20016;-69
2023/07/04 00:49:45;;;;;;;1.80;0.80;;;14.20;99.90;;;;;;5058007;28;20036;-82
2023/07/04 00:52:23;;;;;;;5.53;1.27;;;14.20;99.90;;;;;;5064717;28;20056;-81
2023/07/04 00:55:01;;;;;;;0.77;0.50;;;14.20;99.90;;;;;;5054919;28;20028;-85
2023/07/04 00:57:32;;;;;;;2.10;0.65;;;14.20;99.90;;;;;;5072652;28;20032;-76
2023/07/04 01:00:09;;;;;;;1.58;0.80;;;14.20;99.90;;;;;;5074072;28;20342;-74
2023/07/04 01:02:35;;;;;;;1.40;0.60;;;14.20;99.90;;;;;;5065107;28;20115;-74
2023/07/04 01:05:04;;;;;;;0.50;0.50;;;14.30;99.90;;;;;;5058069;28;20025;-68
2023/07/04 01:07:41;;;;;;;2.42;1.30;;;14.30;99.90;;;;;;5059309;28;20158;-72
2023/07/04 01:10:32;;;;;;;8.05;0.80;;;14.30;99.90;;;;;;5071645;28;20431;-86
2023/07/04 01:12:58;;;;;;;3.20;0.82;;;14.20;99.90;;;;;;5074015;28;20028;-85
2023/07/04 01:15:24;;;;;;;1.67;0.60;;;14.20;99.90;;;;;;5070093;28;20051;-70
2023/07/04 01:17:52;;;;;;;3.15;0.68;;;14.30;99.90;;;;;;5056517;28;20029;-82
2023/07/04 01:20:19;;;;;;;4.78;0.80;;;14.30;99.90;;;;;;5072416;28;20025;-77
2023/07/04 01:22:44;;;;;;;;;;;14.40;99.90;;;;;;5064353;28;20033;-66
2023/07/04 01:25:10;;;;;;;5.60;1.00;;;14.40;99.90;;;;;;5066338;28;20651;-67
2023/07/04 01:27:37;;;;;;;3.93;1.10;;;14.40;99.90;;;;;;5058333;28;20263;-72
2023/07/04 01:30:05;;;;;;;2.65;1.30;;;14.40;99.90;;;;;;5073364;28;20680;-81
2023/07/04 01:32:34;;;;;;;4.53;0.90;;;14.40;99.90;;;;;;5072921;28;20338;-75
2023/07/04 01:35:00;;;;;;;3.15;0.85;;;14.30;99.90;;;;;;5072723;28;20029;-82
2023/07/04 01:37:30;;;;;;;5.22;1.27;;;14.20;99.90;;;;;;5071987;28;20036;-65
2023/07/04 01:39:58;;;;;;;2.25;0.80;;;14.20;99.90;;;;;;5072882;28;20025;-70
2023/07/04 01:42:30;;;;;;;1.45;0.60;;;14.20;99.90;;;;;;5069744;28;20033;-79
2023/07/04 01:44:58;;;;;;;3.20;1.00;;;14.10;99.90;;;;;;5072320;28;20024;-72
2023/07/04 01:47:24;;;;;;;4.80;0.93;;;14.10;99.90;;;;;;5071569;28;20104;-70
2023/07/04 01:49:50;;;;;;;1.13;0.60;;;14.10;99.90;;;;;;5070566;28;20115;-77
2023/07/04 01:52:16;;;;;;;4.87;1.20;;;14.10;99.90;;;;;;5070546;28;20025;-82
2023/07/04 01:54:41;;;;;;;1.93;0.60;;;14.10;99.90;;;;;;5068981;28;20021;-64
2023/07/04 01:57:10;;;;;;;3.23;0.80;;;14.00;99.90;;;;;;5069659;28;20426;-65
2023/07/04 01:59:36;;;;;;;0.73;0.73;;;14.00;99.90;;;;;;5070545;28;20053;-81
2023/07/04 02:02:02;;;;;;;1.08;0.63;;;14.00;99.90;;;;;;5070596;28;20081;-76
2023/07/04 02:04:28;;;;;;;5.13;0.93;;;14.00;99.90;;;;;;5072330;28;20218;-85
2023/07/04 02:06:54;;;;;;;5.90;0.80;;;14.00;99.90;;;;;;5074957;28;20025;-74
2023/07/04 02:09:21;;;;;;;4.60;0.85;;;13.90;99.90;;;;;;5071570;28;20035;-82
2023/07/04 02:11:47;;;;;;;2.10;1.00;;;13.90;99.90;;;;;;5065577;28;20028;-69
2023/07/04 02:14:14;;;;;;;1.10;0.83;;;13.80;99.90;;;;;;5069566;28;20041;-85
2023/07/04 02:16:40;;;;;;;5.60;1.08;;;13.90;99.90;;;;;;5063698;28;20048;-78
2023/07/04 02:19:06;;;;;;;5.27;1.27;;;13.80;99.90;;;;;;5091624;28;20338;-87
2023/07/04 02:21:32;;;;;;;3.93;1.20;;;13.80;99.90;;;;;;5063584;28;20057;-80
2023/07/04 02:23:57;;;;;;;1.47;1.20;;;13.70;99.90;;;;;;5067299;28;20021;-74
2023/07/04 02:26:23;;;;;;;7.73;0.83;;;13.70;99.90;;;;;;5076845;28;20365;-77
2023/07/04 02:28:49;;;;;;;4.00;1.10;;;13.70;99.90;;;;;;5065866;28;20314;-79
2023/07/04 02:31:15;;;;;;;7.70;1.70;;;13.70;99.90;;;;;;5078065;28;20031;-74
2023/07/04 02:33:41;;;;;;;5.78;0.93;;;13.70;99.90;;;;;;5065365;28;20044;-82
2023/07/04 02:36:11;;;;;;;5.38;0.80;;;13.70;99.90;;;;;;5077585;28;20116;-82
2023/07/04 02:38:40;;;;;;;3.15;0.80;;;13.70;99.90;;;;;;5061368;28;20033;-65
2023/07/04 02:41:06;;;;;;;4.18;1.00;;;13.70;99.90;;;;;;5065241;28;20056;-73
2023/07/04 02:43:34;;;;;;;3.38;1.02;;;13.70;99.90;;;;;;5066041;28;20067;-80
2023/07/04 02:46:01;;;;;;;3.55;0.98;;;13.70;99.90;;;;;;5075744;28;20025;-75
2023/07/04 02:48:27;;;;;;;0.82;0.75;;;13.60;99.90;;;;;;5075957;28;20107;-76
2023/07/04 02:50:52;;;;;;;2.53;0.83;;;13.70;99.90;;;;;;5074470;28;20111;-80
2023/07/04 02:53:21;;;;;;;1.47;0.63;;;13.60;99.90;;;;;;5077927;28;20024;-82
2023/07/04 02:55:52;;;;;;;6.35;1.00;;;13.60;99.90;;;;;;5074576;28;20034;-85
2023/07/04 02:58:19;;;;;;;3.75;0.63;;;13.60;99.90;;;;;;5064716;28;20064;-75
2023/07/04 03:00:48;;;;;;;3.90;0.57;;;13.60;99.90;;;;;;5076096;28;20049;-82
2023/07/04 03:03:14;;;;;;;1.17;0.43;;;13.50;99.90;;;;;;5073046;28;20299;-65
2023/07/04 03:05:40;;;;;;;4.60;0.98;;;13.50;99.90;;;;;;5076784;28;20024;-71
2023/07/04 03:08:06;;;;;;;0.60;0.60;;;13.50;99.90;;;;;;5076376;28;20063;-67
2023/07/04 03:10:32;;;;;;;0.77;0.60;;;13.50;99.90;;;;;;5075286;28;20028;-70
2023/07/04 03:12:58;;;;;;;1.60;0.47;;;13.40;99.90;;;;;;5075456;28;20116;-70
2023/07/04 03:15:24;;;;;;;4.10;1.13;;;13.40;99.90;;;;;;5074635;28;20370;-64
2023/07/04 03:17:50;;;;;;;0.60;0.50;;;13.40;99.90;;;;;;5075085;28;20441;-73
2023/07/04 03:20:16;;;;;;;4.82;0.68;;;13.40;99.90;;;;;;5074769;28;20288;-82
2023/07/04 03:22:44;;;;;;;1.67;0.70;;;13.30;99.90;;;;;;5074577;28;20044;-78
2023/07/04 03:25:11;;;;;;;1.17;0.65;;;13.30;99.90;;;;;;5075553;28;20104;-83
2023/07/04 03:27:39;;;;;;;2.63;0.55;;;13.20;99.90;;;;;;5076178;28;20036;-67
2023/07/04 03:30:07;;;;;;;2.42;0.57;;;13.20;99.90;;;;;;5076597;28;20017;-74
2023/07/04 03:32:33;;;;;;;0.60;0.52;;;13.10;99.90;;;;;;5075672;28;20441;-69
2023/07/04 03:35:02;;;;;;;3.22;0.50;;;13.10;99.90;;;;;;5076159;28;20051;-72
2023/07/04 03:37:32;;;;;;;0.85;0.40;;;13.10;99.90;;;;;;5076960;28;20035;-66
2023/07/04 03:40:00;;;;;;;2.05;0.38;;;13.10;99.90;;;;;;5076467;28;20169;-82
2023/07/04 03:42:25;;;;;;;0.88;0.60;;;13.10;99.90;;;;;;5074634;28;20419;-81
2023/07/04 03:44:51;;;;;;;2.27;0.53;;;13.20;99.90;;;;;;5076535;28;20036;-64
2023/07/04 03:47:17;;;;;;;0.37;0.37;;;13.20;99.90;;;;;;5075706;28;20040;-75
2023/07/04 03:49:43;;;;;;;1.83;0.73;;;13.20;99.90;;;;;;5076630;28;20078;-78
2023/07/04 03:52:09;;;;;;;1.23;0.60;;;13.20;99.90;;;;;;5075220;28;20349;-72
2023/07/04 03:54:35;;;;;;;1.33;0.80;;;13.20;99.90;;;;;;5075000;28;20032;-76
2023/07/04 03:57:01;;;;;;;1.67;0.60;;;13.20;99.90;;;;;;5074644;28;20459;-75
2023/07/04 03:59:27;;;;;;;2.13;0.77;;;13.20;99.90;;;;;;5077237;28;20044;-80
2023/07/04 04:01:53;;;;;;;4.18;0.82;;;13.20;99.90;;;;;;5074547;28;20048;-83
2023/07/04 04:04:22;;;;;;;3.10;1.02;;;13.30;99.90;;;;;;5075566;28;20146;-72
2023/07/04 04:06:55;;;;;;;1.08;0.40;;;13.30;99.90;;;;;;5076006;28;20035;-65
2023/07/04 04:09:21;;;;;;;2.08;0.85;;;13.40;99.90;;;;;;5074590;28;20048;-79
2023/07/04 04:11:47;;;;;;;0.82;0.80;;;13.40;99.90;;;;;;5073798;28;20036;-80
2023/07/04 04:14:12;;;;;;;2.63;0.70;;;13.40;99.90;;;;;;5075308;28;20393;-70
2023/07/04 04:16:38;;;;;;;1.63;0.73;;;13.50;99.90;;;;;;5075998;28;20104;-75
2023/07/04 04:19:04;;;;;;;1.50;0.77;;;13.50;99.90;;;;;;5074372;28;20021;-70
2023/07/04 04:21:29;;;;;;;1.57;0.83;;;13.50;99.90;;;;;;5074084;28;20407;-71
2023/07/04 04:23:55;;;;;;;3.00;0.87;;;13.50;99.90;;;;;;5073962;28;20024;-67
2023/07/04 04:26:22;;;;;;;4.10;1.17;;;13.60;99.90;;;;;;5061354;28;20043;-68
2023/07/04 04:28:48;;;;;;;4.18;0.68;;;13.50;99.90;;;;;;5073215;28;20032;-67
2023/07/04 04:31:15;;;;;;;2.10;0.50;;;13.60;99.90;;;;;;5074973;28;20133;-78
2023/07/04 04:33:41;;;;;;;1.05;0.95;;;13.50;99.90;;;;;;5075405;28;20037;-69
2023/07/04 04:36:08;;;;;;;9.02;1.00;;;13.40;99.90;;;;;;5073717;28;20418;-79
2023/07/04 04:38:36;;;;;;;0.68;0.60;;;13.40;99.90;;;;;;5075361;28;20113;-79
2023/07/04 04:41:03;;;;;;;8.77;0.82;;;13.40;99.90;;;;;;5070460;28;20029;-80
2023/07/04 04:43:32;;;;;;;2.88;0.95;;;13.40;99.90;;;;;;5066629;28;20024;-70
2023/07/04 04:46:02;;;;;;;6.50;1.08;;;13.40;99.90;;;;;;5066556;28;20025;-65
2023/07/04 04:48:35;;;;;;;0.98;0.52;;;13.50;99.90;;;;;;5066954;28;20090;-73
2023/07/04 04:51:12;;;;;;;6.30;1.20;;;13.50;99.90;;;;;;5070087;28;20033;-74
2023/07/04 04:53:41;;;;;;;1.85;0.60;;;13.60;99.90;;;;;;5057770;28;20048;-69
2023/07/04 04:56:08;;;;;;;5.22;1.13;;;13.60;99.90;;;;;;5073123;28;20032;-74
2023/07/04 04:58:34;;;;;;;2.00;1.15;;;13.50;99.90;;;;;;5074709;28;20024;-79
2023/07/04 05:01:11;;;;;;;1.70;0.88;;;13.60;99.90;;;;;;5074918;28;20123;-64
2023/07/04 05:03:36;;;;;;;3.83;1.08;;;13.60;99.90;;;;;;5074223;28;20028;-72
2023/07/04 05:06:05;;;;;;;3.23;0.93;;;13.70;99.90;;;;;;5074151;28;20020;-68
2023/07/04 05:08:30;;;;;;;3.50;1.30;;;13.70;99.90;;;;;;5068937;28;20083;-73
2023/07/04 05:11:07;;;;;;;3.33;1.40;;;13.70;99.90;;;;;;5061029;28;20411;-75
2023/07/04 05:13:34;;;;;;;4.60;1.20;;;13.70;99.90;;;;;;5061685;28;20331;-66
2023/07/04 05:16:09;;;;;;;6.68;1.30;;;13.70;99.90;;;;;;5061439;28;20055;-76
2023/07/04 05:18:37;;;;;;;2.72;0.88;;;13.80;99.90;;;;;;5068039;28;20035;-77
2023/07/04 05:21:08;;;;;;;4.45;1.10;;;13.70;99.90;;;;;;5077355;28;20025;-70
2023/07/04 05:23:37;;;;;;;2.35;1.05;;;13.70;99.90;;;;;;5060843;28;20033;-75
2023/07/04 05:26:11;;;;;;;1.40;0.90;;;13.80;99.90;;;;;;5062107;28;20021;-74
2023/07/04 05:28:38;;;;;;;2.88;1.15;;;13.80;99.90;;;;;;5057073;28;20029;-66
2023/07/04 05:31:09;;;;;;;6.03;1.15;;;13.90;99.90;;;;;;5064167;28;20021;-74
2023/07/04 05:33:35;;;;;;;4.47;0.95;;;14.00;99.90;;;;;;5073377;28;20415;-75
2023/07/04 05:36:20;;;;;;;4.85;1.02;;;14.10;99.90;;;;;;5066621;28;20040;-76
2023/07/04 05:38:51;;;;;;;8.43;1.48;;;14.20;99.90;;;;;;5063294;28;20340;-76
2023/07/04 05:41:19;;;;;;;4.78;1.15;;;14.30;99.90;;;;;;5060331;28;20032;-67
2023/07/04 05:43:46;;;;;;;8.25;1.10;;;14.40;99.90;;;;;;5060507;28;20380;-75
2023/07/04 05:46:13;;;;;;;1.48;0.75;;;14.50;99.90;;;;;;5062063;28;20031;-68
2023/07/04 05:48:39;;;;;;;4.30;1.48;;;14.50;99.90;;;;;;5062351;28;20356;-67
2023/07/04 05:51:10;;;;;;;3.63;1.10;;;14.60;99.90;;;;;;5068925;28;20017;-70
2023/07/04 05:53:37;;;;;;;11.57;1.90;;;14.70;99.90;;;;;;5060689;28;20060;-72
2023/07/04 05:56:15;;;;;;;6.57;1.27;;;14.70;99.90;;;;;;5061116;28;20025;-78
2023/07/04 05:58:43;;;;;;;7.53;1.55;;;14.80;99.90;;;;;;5057267;28;20017;-78
2023/07/04 06:01:08;;;;;;;4.28;0.98;;;14.90;99.90;;;;;;5068193;28;20049;-69
2023/07/04 06:03:35;;;;;;;4.07;1.27;;;15.00;99.90;;;;;;5072123;28;20047;-64
2023/07/04 06:06:05;;;;;;;4.57;1.17;;;15.00;99.90;;;;;;5068605;28;20407;-71
2023/07/04 06:08:32;;;;;;;3.97;0.75;;;15.00;99.90;;;;;;5055476;28;20445;-75
2023/07/04 06:11:04;;;;;;;6.22;1.33;;;15.00;99.90;;;;;;5065310;28;20051;-81
2023/07/04 06:13:30;;;;;;;1.85;1.20;;;15.00;99.90;;;;;;5068491;28;20021;-78
2023/07/04 06:15:56;;;;;;;8.82;1.30;;;15.10;99.90;;;;;;5064824;28;20373;-66
2023/07/04 06:18:23;;;;;;;3.23;1.50;;;15.20;99.90;;;;;;5059806;28;20082;-78
2023/07/04 06:20:48;;;;;;;4.20;1.20;;;15.20;99.90;;;;;;5070908;28;20353;-65
2023/07/04 06:23:15;;;;;;;9.27;1.43;;;15.30;99.90;;;;;;5059766;28;20121;-78
2023/07/04 06:25:41;;;;;;;2.05;1.00;;;15.40;99.90;;;;;;5066526;28;20047;-67
2023/07/04 06:28:07;;;;;;;3.40;0.93;;;15.50;99.90;;;;;;5060555;28;20025;-71
2023/07/04 06:30:35;;;;;;;2.95;1.25;;;15.50;99.90;;;;;;5063279;28;20028;-67
2023/07/04 06:33:06;;;;;;;4.68;1.15;;;15.60;99.90;;;;;;5064065;28;20429;-76
2023/07/04 06:35:32;;;;;;;6.93;1.88;;;15.60;99.90;;;;;;5066615;28;20323;-76
2023/07/04 06:37:57;;;;;;;6.57;1.10;;;15.70;99.90;;;;;;5073013;28;20032;-77
2023/07/04 06:40:23;;;;;;;3.97;1.10;;;15.80;99.90;;;;;;5073595;28;20032;-71
2023/07/04 06:42:49;;;;;;;3.73;0.83;;;15.80;99.90;;;;;;5073626;28;20025;-68
2023/07/04 06:45:15;;;;;;;12.13;1.75;;;15.90;99.90;;;;;;5077304;28;20051;-64
2023/07/04 06:47:41;;;;;;;7.33;1.23;;;16.10;99.90;;;;;;5076578;28;20043;-70
2023/07/04 06:50:07;;;;;;;7.13;1.47;;;16.20;99.90;;;;;;5073621;28;20036;-70
2023/07/04 06:52:33;;;;;;;7.70;1.20;;;16.30;99.90;;;;;;5076640;28;20480;-74
2023/07/04 06:54:59;;;;;;;6.33;1.30;;;16.30;99.90;;;;;;5076787;28;20029;-65
2023/07/04 06:57:25;;;;;;;4.17;1.00;;;16.40;99.90;;;;;;5077010;28;20603;-68
2023/07/04 06:59:51;;;;;;;2.27;1.27;;;16.50;99.90;;;;;;5076382;28;20032;-77
2023/07/04 07:02:17;;;;;;;5.43;1.50;;;16.40;99.90;;;;;;5065198;28;20055;-76
2023/07/04 07:04:43;;;;;;;12.27;1.30;;;16.40;99.90;;;;;;5076994;28;20350;-68
2023/07/04 07:07:10;;;;;;;3.92;1.17;;;16.30;99.90;;;;;;5076150;28;20024;-68
2023/07/04 07:09:41;;;;;;;3.78;1.83;;;16.20;99.90;;;;;;5077066;28;20108;-67
2023/07/04 07:12:09;;;;;;;7.32;2.25;;;16.10;99.90;;;;;;5076130;28;20318;-80
2023/07/04 07:14:36;;;;;;;8.50;1.77;;;16.00;99.90;;;;;;5076614;28;20111;-80
2023/07/04 07:17:02;;;;;;;7.82;1.50;;;16.00;99.90;;;;;;5071765;28;20327;-66
2023/07/04 07:19:29;;;;;;;6.93;2.33;;;16.00;99.90;;;;;;5076364;28;20031;-80
2023/07/04 07:21:54;;;;;;;;;;;16.00;99.90;;;;;;5074074;28;20031;-69
2023/07/04 07:24:20;;;;;;;3.17;1.40;;;16.00;99.90;;;;;;5065375;28;19909;-64
2023/07/04 07:26:46;;;;;;;1.77;0.90;;;16.00;99.90;;;;;;5074375;28;20036;-64
2023/07/04 07:29:14;;;;;;;10.65;1.27;;;16.10;99.90;;;;;;5062460;28;20052;-64
2023/07/04 07:31:40;;;;;;;4.82;1.33;;;16.10;99.90;;;;;;5074233;28;20028;-67
2023/07/04 07:34:06;;;;;;;6.88;1.17;;;16.30;99.90;;;;;;5072172;28;20032;-67
2023/07/04 07:36:42;;;;;;;10.48;1.30;;;16.30;99.90;;;;;;5063648;28;20033;-64
2023/07/04 07:39:11;;;;;;;5.10;1.42;;;16.50;99.90;;;;;;5065456;28;20064;-65
2023/07/04 07:41:41;;;;;;;4.15;0.93;;;16.60;99.90;;;;;;5073537;28;20021;-76
2023/07/04 07:44:10;;;;;;;3.72;1.38;;;16.70;99.90;;;;;;5071483;28;20031;-66
2023/07/04 07:46:37;;;;;;;6.30;1.45;;;16.80;99.90;;;;;;5069225;28;20025;-83
2023/07/04 07:49:03;;;;;;;5.22;1.15;;;16.90;99.90;;;;;;5060778;28;20735;-70
2023/07/04 07:51:29;;;;;;;5.55;1.70;;;17.00;99.90;;;;;;5070433;28;20043;-76
2023/07/04 07:53:57;;;;;;;8.50;1.27;;;17.30;99.90;;;;;;5074565;28;20032;-75
2023/07/04 07:56:33;;;;;;;12.73;2.08;;;17.40;99.90;;;;;;5070747;28;20032;-73
2023/07/04 07:58:59;;;;;;;4.45;1.50;;;17.60;99.90;;;;;;5071093;28;20024;-69
2023/07/04 08:01:32;;;;;;;13.18;1.80;;;17.60;99.90;;;;;;5075948;28;20334;-72
2023/07/04 08:03:59;;;;;;;2.85;1.00;;;17.60;99.90;;;;;;5071083;28;20077;-78
2023/07/04 08:06:33;;;;;;;4.45;0.80;;;17.70;99.90;;;;;;5074942;28;20111;-80
2023/07/04 08:09:01;;;;;;;7.18;1.88;;;17.80;99.90;;;;;;5068545;28;20025;-74
2023/07/04 08:11:30;;;;;;;3.72;1.50;;;17.80;99.90;;;;;;5074481;28;20021;-67
2023/07/04 08:13:56;;;;;;;10.02;1.70;;;17.80;99.90;;;;;;5076141;28;20075;-68
2023/07/04 08:16:28;;;;;;;9.75;1.65;;;17.80;99.90;;;;;;5065893;28;20036;-71
2023/07/04 08:18:58;;;;;;;3.03;1.08;;;17.70;99.90;;;;;;5065005;28;20112;-79
2023/07/04 08:21:24;;;;;;;10.80;2.03;;;17.70;99.90;;;;;;5072056;28;20111;-70
2023/07/04 08:23:50;;;;;;;8.85;1.48;;;17.80;99.90;;;;;;5070184;28;20063;-82
2023/07/04 08:26:22;;;;;;;5.80;0.90;;;17.90;99.90;;;;;;5069257;28;20308;-65
2023/07/04 08:28:48;;;;;;;4.47;1.20;;;17.90;99.90;;;;;;5069712;28;20035;-69
2023/07/04 08:31:18;;;;;;;2.10;1.20;;;17.90;99.90;;;;;;5073716;28;20024;-84
2023/07/04 08:33:45;;;;;;;7.70;0.90;;;17.90;99.90;;;;;;5074522;28;20448;-78
2023/07/04 08:36:11;;;;;;;8.75;1.23;;;17.80;99.90;;;;;;5068288;28;20036;-71
2023/07/04 08:38:38;;;;;;;5.55;1.40;;;17.80;99.90;;;;;;5074911;28;20020;-69
2023/07/04 08:41:25;;;;;;;5.90;1.10;;;17.70;99.90;;;;;;5072760;28;20482;-72
2023/07/04 08:43:56;;;;;;;3.30;1.27;;;17.70;99.90;;;;;;5074130;28;20027;-71
2023/07/04 08:46:23;;;;;;;8.38;1.27;;;17.60;99.90;;;;;;5063923;28;20029;-68
2023/07/04 08:48:49;;;;;;;2.63;1.02;;;17.60;99.90;;;;;;5069123;28;20028;-70
2023/07/04 08:51:21;;;;;;;8.52;1.48;;;17.50;99.90;;;;;;5070088;28;20021;-74
2023/07/04 08:53:56;;;;;;;6.20;1.17;;;17.40;99.90;;;;;;5069972;28;20104;-75
2023/07/04 08:56:34;;;;;;;5.40;1.58;;;17.30;99.90;;;;;;5068996;28;20098;-66
2023/07/04 08:59:16;;;;;;;3.45;1.25;;;17.20;99.90;;;;;;5067537;28;20411;-75
2023/07/04 09:02:07;;;;;;;4.38;1.08;;;17.10;99.90;;;;;;5062630;28;20247;-70
2023/07/04 09:04:55;;;;;;;6.70;1.98;;;17.00;99.90;;;;;;5069775;28;20025;-67
2023/07/04 09:08:13;;;;;;;7.07;1.23;;;16.90;99.90;;;;;;5072641;28;20039;-66
2023/07/04 09:10:46;;;;;;;9.00;1.80;;;16.90;99.90;;;;;;5034249;28;20039;-70
2023/07/04 09:13:39;;;;;;;9.27;1.17;;;16.90;99.90;;;;;;5073349;28;20033;-66
2023/07/04 09:16:23;;;;;;;9.02;1.58;;;16.90;99.90;;;;;;5056441;28;20033;-70
2023/07/04 09:19:19;;;;;;;4.80;1.33;;;16.90;99.90;;;;;;5072375;28;20040;-81
2023/07/04 09:21:45;;;;;;;;;;;16.90;99.90;;;;;;5063175;28;20086;-75
2023/07/04 09:24:15;;;;;;;8.50;1.02;;;16.90;99.90;;;;;;5071006;28;19966;-67
2023/07/04 09:26:52;;;;;;;3.05;0.95;;;16.70;99.90;;;;;;5070028;28;20024;-77
2023/07/04 09:29:22;;;;;;;8.48;1.60;;;16.60;99.90;;;;;;5061775;28;20083;-68
2023/07/04 09:31:54;;;;;;;3.25;0.88;;;16.60;99.90;;;;;;5073876;28;20029;-71
2023/07/04 09:34:53;;;;;;;4.13;1.00;;;16.60;99.90;;;;;;5070181;28;20029;-68
2023/07/04 09:37:22;;;;;;;6.72;1.30;;;16.60;99.90;;;;;;5056567;28;20116;-68
2023/07/04 09:39:54;;;;;;;3.80;0.77;;;16.60;99.90;;;;;;5073704;28;20024;-65
2023/07/04 09:42:45;;;;;;;2.30;1.00;;;16.60;99.90;;;;;;5068601;28;20024;-70
2023/07/04 09:45:12;;;;;;;5.65;1.40;;;16.60;99.90;;;;;;5073543;28;20102;-79
2023/07/04 09:47:45;;;;;;;11.25;1.38;;;16.50;99.90;;;;;;5068594;28;20049;-65
2023/07/04 09:50:29;;;;;;;3.95;1.52;;;16.30;99.90;;;;;;5066793;28;20021;-76
2023/07/04 09:53:09;;;;;;;5.55;1.15;;;16.10;99.90;;;;;;5078364;28;20028;-69
2023/07/04 09:55:40;;;;;;;4.82;1.30;;;16.00;99.90;;;;;;5073662;28;20024;-68
2023/07/04 09:58:21;;;;;;;5.88;0.95;;;15.90;99.90;;;;;;5062531;28;20044;-71
2023/07/04 10:01:08;;;;;;;4.40;1.10;;;15.70;99.90;;;;;;5083206;28;20041;-67
2023/07/04 10:03:39;;;;;;;4.00;1.35;;;15.70;99.90;;;;;;5055917;28;20086;-68
2023/07/04 10:06:08;;;;;;;5.03;0.85;;;15.60;99.90;;;;;;5073843;28;20032;-74
2023/07/04 10:08:57;;;;;;;8.52;1.42;;;15.60;99.90;;;;;;5074152;28;20099;-67
2023/07/04 10:11:32;;;;;;;3.92;1.10;;;15.70;99.90;;;;;;5061709;28;20021;-73
2023/07/04 10:14:00;;;;;;;3.67;1.20;;;15.70;99.90;;;;;;5063459;28;20117;-79
2023/07/04 10:16:27;;;;;;;3.55;1.33;;;15.80;99.90;;;;;;5075617;28;20028;-81
2023/07/04 10:19:08;;;;;;;1.80;0.93;;;15.80;99.90;;;;;;5075435;28;20082;-80
2023/07/04 10:21:54;;;;;;;4.13;1.40;;;15.90;99.90;;;;;;5076757;28;20048;-82
2023/07/04 10:24:21;;;;;;;;;;;15.90;99.90;;;;;;5064374;28;20083;-79
2023/07/04 10:26:56;;;;;;;5.72;1.17;;;16.00;99.90;;;;;;5065989;28;19911;-79
2023/07/04 10:29:46;;;;;;;2.97;0.98;;;16.00;99.90;;;;;;5070591;28;20752;-66
2023/07/04 10:32:17;;;;;;;4.75;1.23;;;16.10;99.90;;;;;;5074354;28;20032;-68
2023/07/04 10:35:04;;;;;;;3.50;1.02;;;16.10;99.90;;;;;;5067489;28;20289;-65
2023/07/04 10:37:36;;;;;;;6.10;1.88;;;16.20;99.90;;;;;;5071387;28;20099;-68
2023/07/04 10:40:06;;;;;;;8.02;1.30;;;16.20;99.90;;;;;;5075678;28;20102;-71
2023/07/04 10:42:53;;;;;;;6.45;1.65;;;16.30;99.90;;;;;;5074568;28;20401;-72
2023/07/04 10:45:23;;;;;;;14.80;1.98;;;16.50;99.90;;;;;;5063144;28;20028;-77
2023/07/04 10:47:52;;;;;;;5.18;1.58;;;16.60;99.90;;;;;;5056093;28;20024;-73
2023/07/04 10:50:26;;;;;;;12.75;2.03;;;16.90;99.90;;;;;;5064736;28;20130;-79
2023/07/04 10:52:52;;;;;;;8.65;1.85;;;17.00;99.90;;;;;;5062393;28;20214;-66
2023/07/04 10:55:26;;;;;;;6.70;1.80;;;17.10;99.90;;;;;;5065508;28;20501;-64
2023/07/04 10:57:59;;;;;;;9.75;2.40;;;17.40;99.90;;;;;;5059124;28;20044;-75
2023/07/04 11:00:33;;;;;;;6.80;1.77;;;17.60;99.90;;;;;;5069175;28;20021;-79
2023/07/04 11:03:16;;;;;;;7.93;1.52;;;17.80;99.90;;;;;;5069668;28;20554;-70
2023/07/04 11:05:46;;;;;;;5.13;1.60;;;18.10;99.90;;;;;;5055491;28;20124;-79
2023/07/04 11:08:21;;;;;;;7.22;1.42;;;18.30;99.90;;;;;;5065598;28;20470;-73
2023/07/04 11:10:57;;;;;;;9.32;1.50;;;18.30;99.90;;;;;;5069069;28;20449;-67
2023/07/04 11:13:24;;;;;;;9.43;1.88;;;18.30;99.90;;;;;;5067058;28;20084;-68
2023/07/04 11:16:03;;;;;;;9.57;2.15;;;18.40;99.90;;;;;;5065062;28;20106;-80
2023/07/04 11:18:36;;;;;;;4.28;1.20;;;18.50;99.90;;;;;;5066228;28;20029;-68
2023/07/04 11:21:11;;;;;;;9.38;2.00;;;18.60;99.90;;;;;;5062829;28;20029;-73
2023/07/04 11:24:09;;;;;;;11.07;1.33;;;18.50;99.90;;;;;;5071141;28;20367;-83
2023/07/04 11:27:02;;;;;;;7.88;1.95;;;18.60;99.90;;;;;;5071671;28;20029;-80
2023/07/04 11:29:55;;;;;;;7.82;1.25;;;18.60;99.90;;;;;;5069141;28;20112;-71
2023/07/04 11:32:39;;;;;;;4.45;1.63;;;18.50;99.90;;;;;;5068753;28;20289;-82
2023/07/04 11:35:15;;;;;;;9.18;1.42;;;18.40;99.90;;;;;;5073806;28;20052;-82
2023/07/04 11:38:05;;;;;;;6.90;1.48;;;18.60;99.90;;;;;;5074228;28;20027;-69
2023/07/04 11:40:55;;;;;;;5.20;1.50;;;18.70;99.90;;;;;;5072330;28;20127;-82
2023/07/04 11:43:28;;;;;;;4.07;1.20;;;18.80;99.90;;;;;;5068875;28;20440;-65
2023/07/04 11:45:57;;;;;;;5.45;1.20;;;18.70;99.90;;;;;;5073830;28;20074;-64
2023/07/04 11:48:28;;;;;;;4.38;1.02;;;18.60;99.90;;;;;;5070740;28;20079;-80
2023/07/04 11:51:05;;;;;;;9.10;1.50;;;18.70;99.90;;;;;;5067394;28;20036;-78
2023/07/04 11:53:39;;;;;;;10.02;1.77;;;19.10;99.90;;;;;;5066736;28;20036;-81
2023/07/04 11:56:26;;;;;;;3.42;0.82;;;19.40;99.90;;;;;;5074538;28;20023;-81
2023/07/04 11:59:11;;;;;;;8.10;1.13;;;19.60;99.90;;;;;;5059199;28;20032;-76
2023/07/04 12:01:55;;;;;;;1.70;0.90;;;19.70;99.90;;;;;;5068713;28;20037;-81
2023/07/04 12:04:46;;;;;;;5.68;1.17;;;19.70;99.90;;;;;;5075007;28;20382;-72
2023/07/04 12:07:53;;;;;;;3.15;1.52;;;19.90;99.90;;;;;;5067280;28;20033;-68
2023/07/04 12:10:21;;;;;;;3.30;1.35;;;20.30;99.90;;;;;;5072797;28;20104;-70
2023/07/04 12:12:58;;;;;;;4.50;1.05;;;20.60;99.90;;;;;;5072031;28;20017;-78
2023/07/04 12:15:33;;;;;;;5.50;1.20;;;20.40;99.90;;;;;;5061057;28;20071;-64
2023/07/04 12:18:12;;;;;;;3.40;0.93;;;20.20;99.90;;;;;;5073886;28;20024;-69
2023/07/04 12:20:39;;;;;;;3.65;1.42;;;20.10;99.90;;;;;;5075018;28;20020;-78
2023/07/04 12:23:09;;;;;;;1.60;0.70;;;20.10;99.90;;;;;;5061534;28;20085;-69
2023/07/04 12:25:50;;;;;;;6.55;1.70;;;20.00;99.90;;;;;;5066821;28;20017;-74
2023/07/04 12:28:18;;;;;;;1.35;0.80;;;20.10;99.90;;;;;;5064361;28;20044;-80
2023/07/04 12:30:53;;;;;;;2.63;1.00;;;20.20;99.90;;;;;;5072299;28;20362;-82
2023/07/04 12:33:20;;;;;;;6.18;1.00;;;20.10;99.90;;;;;;5072812;28;20032;-70
2023/07/04 12:35:55;;;;;;;3.08;1.10;;;20.00;99.90;;;;;;5057737;28;20037;-67
2023/07/04 12:38:26;;;;;;;5.80;1.80;;;20.00;99.90;;;;;;5086319;28;20052;-84
2023/07/04 12:40:54;;;;;;;3.17;0.85;;;20.00;99.90;;;;;;5075179;28;20039;-78
2023/07/04 12:43:21;;;;;;;2.70;0.88;;;20.10;99.90;;;;;;5074884;28;20032;-74
2023/07/04 12:45:47;;;;;;;;;;;20.10;99.90;;;;;;5075871;28;20055;-84
2023/07/04 12:48:15;;;;;;;2.80;1.15;;;20.30;99.90;;;;;;5075045;28;19943;-68
2023/07/04 12:50:53;;;;;;;4.13;1.08;;;20.40;99.90;;;;;;5074721;28;20646;-84
2023/07/04 12:53:19;;;;;;;6.03;1.67;;;20.50;99.90;;;;;;5075257;28;20036;-86
2023/07/04 12:55:46;;;;;;;8.25;1.90;;;20.50;99.90;;;;;;5075268;28;20029;-81
2023/07/04 12:58:14;;;;;;;4.35;1.13;;;20.50;99.90;;;;;;5064156;28;20500;-67
2023/07/04 13:01:03;;;;;;;4.20;1.00;;;20.60;99.90;;;;;;5072230;28;20040;-67
2023/07/04 13:03:30;;;;;;;2.83;1.00;;;20.60;99.90;;;;;;5074192;28;20462;-70
2023/07/04 13:05:56;;;;;;;5.93;1.17;;;20.60;99.90;;;;;;5061881;28;20070;-85
2023/07/04 13:08:24;;;;;;;;;;;20.70;99.90;;;;;;5075376;28;20166;-79